Palma De Mallorca, Spain

5:39 AM CET on March 05, 2015 (GMT +0100)
Palma De Mallorca | Change Station
CLOSE
Current Station
Airport
Location: Palma de Mallorca,
Elevation: 26 ft
Nearby Weather Stations
Active Advisory: Wind

Elev 26 ft 39.56 °N, 2.74 °E | Updated 9 minutes ago

Partly Cloudy
Partly Cloudy
50 °F
Feels Like 50 °F
N
5
Wind Variable Wind from NW
Gusts 16 mph

Today
High -- | Low -- °F
--% Chance of Precip.
Yesterday
High -- | Low -- °F
Precip. -- in
7:16 AM 6:45 PM
Full, 100% visible
Pressure 30.33 in
Visibility 6.2 miles
Clouds Few 4800 ft
Dew Point 34 °F
Humidity 54%
Rainfall 0.00 in
Snow Depth Not available.
UV 0 out of 12
Pollen Not available.
Air Quality Not available.
Flu Activity Not available.
METAR LEPA 050430Z 31004G14KT 260V360 9999 FEW048 10/01 Q1027 NOSIG

More Conditions Fewer Conditions

Pressure 30.33 in
Visibility 6.2 miles
Clouds Few 4800 ft
Dew Point 34 °F
Humidity 54%
Rainfall 0.00 in
Snow Depth Not available.
UV 0 out of 12
Pollen Not available.
Air Quality Not available.
Flu Activity Not available.
METAR LEPA 050430Z 31004G14KT 260V360 9999 FEW048 10/01 Q1027 NOSIG

More Conditions Fewer Conditions

10-Day Weather Forecast

Almanac

Astronomy

Mar. 05, 2015 Rise Set
Actual Time
Civil Twilight
Nautical Twilight
Astronomical Twilight
Moon
Length of Visible Light
Length of Day
Tomorrow will be .
, % of the Moon is Illuminated

Today's Extremes

Country Highs Country Lows

Community

WunderPhotos

Upload Photos

1,802,676 photos uploaded!

WunderBlogs® & News

Nearby

Air Quality

  Air Quality AQ Index Pollutant
Not available.

Snow Depth

Station Depth Elevation

Earthquake Activity

City Distance Mag. Time & Date
Minimum magnitude displayed is 2.5.

Coastal Water Temperatures

Place Temperature

Nearby Weather Stations